createdAt,value
2023-01-06T00:00:18.020Z,12.22
2023-01-06T00:02:45.435Z,12.26
2023-01-06T00:05:11.812Z,12.29
2023-01-06T00:07:39.208Z,12.31
2023-01-06T00:10:06.285Z,12.31
2023-01-06T00:12:33.028Z,12.31
2023-01-06T00:14:59.490Z,12.31
2023-01-06T00:17:25.794Z,12.27
2023-01-06T00:19:52.135Z,12.25
2023-01-06T00:22:18.550Z,12.24
2023-01-06T00:24:44.914Z,12.29
2023-01-06T00:27:11.262Z,12.26
2023-01-06T00:29:37.616Z,12.13
2023-01-06T00:32:03.923Z,12.31
2023-01-06T00:34:30.333Z,12.31
2023-01-06T00:36:56.672Z,12.28
2023-01-06T00:39:23.159Z,12.27
2023-01-06T00:42:04.791Z,12.29
2023-01-06T00:44:35.702Z,12.28
2023-01-06T00:47:02.593Z,12.28
2023-01-06T00:49:28.981Z,12.29
2023-01-06T00:51:55.528Z,12.29
2023-01-06T00:54:22.311Z,12.23
2023-01-06T00:56:50.486Z,12.20
2023-01-06T00:59:18.163Z,12.17
2023-01-06T01:01:45.332Z,12.19
2023-01-06T01:04:12.176Z,12.16
2023-01-06T01:06:38.689Z,12.17
2023-01-06T01:09:06.117Z,12.17
2023-01-06T01:11:51.318Z,12.21
2023-01-06T01:14:21.227Z,12.20
2023-01-06T01:16:47.843Z,12.23
2023-01-06T01:19:14.723Z,12.20
2023-01-06T01:21:41.528Z,12.17
2023-01-06T01:24:07.937Z,12.16
2023-01-06T01:26:34.344Z,12.15
2023-01-06T01:29:01.134Z,12.13
2023-01-06T01:31:27.688Z,12.12
2023-01-06T01:33:54.205Z,12.14
2023-01-06T01:36:20.677Z,12.08
2023-01-06T01:38:47.065Z,12.07
2023-01-06T01:41:16.391Z,12.02
2023-01-06T01:43:43.898Z,12.03
2023-01-06T01:46:10.824Z,12.05
2023-01-06T01:48:37.669Z,12.09
2023-01-06T01:51:06.680Z,12.09
2023-01-06T01:53:36.093Z,12.04
2023-01-06T01:56:04.463Z,12.02
2023-01-06T01:58:36.786Z,12.01
2023-01-06T02:01:03.297Z,12.02
2023-01-06T02:03:29.667Z,12.01
2023-01-06T02:05:58.115Z,11.97
2023-01-06T02:08:31.845Z,11.94
2023-01-06T02:10:58.200Z,11.93
2023-01-06T02:13:24.645Z,11.95
2023-01-06T02:15:56.128Z,11.92
2023-01-06T02:18:33.213Z,11.89
2023-01-06T02:20:59.541Z,11.86
2023-01-06T02:23:38.877Z,11.91
2023-01-06T02:26:23.926Z,11.91
2023-01-06T02:29:16.187Z,11.92
2023-01-06T02:32:02.507Z,11.89
2023-01-06T02:34:47.771Z,11.87
2023-01-06T02:37:18.402Z,11.85
2023-01-06T02:40:03.643Z,11.91
2023-01-06T02:42:40.209Z,11.93
2023-01-06T02:45:06.750Z,11.92
2023-01-06T02:47:39.844Z,11.88
2023-01-06T02:50:24.936Z,11.87
2023-01-06T02:52:51.239Z,11.85
2023-01-06T02:55:29.173Z,11.85
2023-01-06T02:58:01.756Z,11.89
2023-01-06T03:00:35.043Z,11.90
2023-01-06T03:03:04.540Z,11.90
2023-01-06T03:05:33.001Z,11.91
2023-01-06T03:08:01.675Z,11.90
2023-01-06T03:10:29.240Z,11.90
2023-01-06T03:13:00.151Z,11.90
2023-01-06T03:15:26.553Z,11.88
2023-01-06T03:17:53.017Z,11.89
2023-01-06T03:20:19.774Z,11.85
2023-01-06T03:22:46.080Z,11.84
2023-01-06T03:25:12.625Z,11.85
2023-01-06T03:27:39.005Z,11.90
2023-01-06T03:30:09.622Z,11.94
2023-01-06T03:32:47.621Z,11.94
2023-01-06T03:35:30.283Z,11.95
2023-01-06T03:38:06.288Z,11.93
2023-01-06T03:40:35.669Z,11.95
2023-01-06T03:43:16.109Z,11.98
2023-01-06T03:45:50.620Z,11.97
2023-01-06T03:48:24.808Z,12.01
2023-01-06T03:51:05.437Z,11.95
2023-01-06T03:53:34.860Z,11.95
2023-01-06T03:56:08.801Z,11.95
2023-01-06T03:58:37.521Z,11.93
2023-01-06T04:01:04.140Z,11.87
2023-01-06T04:03:30.821Z,11.84
2023-01-06T04:05:57.207Z,11.82
2023-01-06T04:08:23.548Z,11.86
2023-01-06T04:10:49.949Z,11.85
2023-01-06T04:13:16.331Z,11.82
2023-01-06T04:15:42.828Z,11.85
2023-01-06T04:18:09.296Z,11.88
2023-01-06T04:20:35.702Z,11.87
2023-01-06T04:23:02.096Z,11.87
2023-01-06T04:25:28.451Z,11.89
2023-01-06T04:27:54.987Z,11.65
2023-01-06T04:30:21.372Z,11.85
2023-01-06T04:32:47.829Z,11.86
2023-01-06T04:35:14.296Z,11.84
2023-01-06T04:37:40.669Z,11.86
2023-01-06T04:40:07.690Z,11.89
2023-01-06T04:42:54.091Z,11.90
2023-01-06T04:45:20.424Z,11.97
2023-01-06T04:47:46.883Z,12.01
2023-01-06T04:50:13.255Z,12.05
2023-01-06T04:52:39.702Z,11.99
2023-01-06T04:55:06.225Z,11.97
2023-01-06T04:57:32.574Z,12.03
2023-01-06T04:59:58.974Z,12.04
2023-01-06T05:02:25.432Z,12.09
2023-01-06T05:04:51.812Z,12.05
2023-01-06T05:07:18.156Z,12.05
2023-01-06T05:09:44.511Z,12.06
2023-01-06T05:12:10.838Z,12.00
2023-01-06T05:14:37.220Z,12.04
2023-01-06T05:17:03.585Z,11.98
2023-01-06T05:19:29.913Z,11.97
2023-01-06T05:21:56.288Z,12.00
2023-01-06T05:24:22.655Z,12.03
2023-01-06T05:26:48.984Z,12.02
2023-01-06T05:29:16.942Z,12.07
2023-01-06T05:31:43.476Z,12.06
2023-01-06T05:34:10.848Z,11.98
2023-01-06T05:36:37.175Z,12.00
2023-01-06T05:39:03.555Z,12.02
2023-01-06T05:41:29.946Z,12.01
2023-01-06T05:43:56.789Z,12.01
2023-01-06T05:46:23.211Z,12.02
2023-01-06T05:48:49.647Z,11.99
2023-01-06T05:51:16.654Z,12.03
2023-01-06T05:53:44.007Z,11.98
2023-01-06T05:56:11.693Z,12.00
2023-01-06T05:58:40.320Z,11.99
2023-01-06T06:01:07.191Z,11.97
2023-01-06T06:03:33.572Z,11.93
2023-01-06T06:06:03.806Z,11.94
2023-01-06T06:08:30.218Z,11.90
2023-01-06T06:10:56.584Z,11.90
2023-01-06T06:13:24.424Z,11.87
2023-01-06T06:15:50.849Z,11.86
2023-01-06T06:18:17.243Z,11.86
2023-01-06T06:20:43.577Z,11.83
2023-01-06T06:23:09.931Z,11.88
2023-01-06T06:25:36.261Z,11.87
2023-01-06T06:28:02.639Z,11.89
2023-01-06T06:30:29.021Z,11.89
2023-01-06T06:32:55.437Z,11.91
2023-01-06T06:35:21.786Z,11.94
2023-01-06T06:37:48.472Z,11.95
2023-01-06T06:40:14.829Z,12.01
2023-01-06T06:42:41.181Z,12.02
2023-01-06T06:45:08.007Z,12.06
2023-01-06T06:47:34.333Z,12.05
2023-01-06T06:50:00.693Z,12.04
2023-01-06T06:52:27.056Z,12.05
2023-01-06T06:54:53.405Z,12.06
2023-01-06T06:57:19.796Z,12.09
2023-01-06T06:59:46.133Z,12.04
2023-01-06T07:02:12.656Z,12.03
2023-01-06T07:04:39.158Z,12.01
2023-01-06T07:07:05.526Z,11.98
2023-01-06T07:09:31.877Z,11.99
2023-01-06T07:11:58.279Z,12.03
2023-01-06T07:14:24.625Z,12.10
2023-01-06T07:16:50.933Z,12.11
2023-01-06T07:19:17.350Z,12.12
2023-01-06T07:21:43.664Z,12.12
2023-01-06T07:24:10.145Z,12.09
2023-01-06T07:26:36.509Z,12.10
2023-01-06T07:29:02.825Z,12.07
2023-01-06T07:31:29.210Z,12.12
2023-01-06T07:33:55.558Z,12.13
2023-01-06T07:36:21.898Z,12.08
2023-01-06T07:38:48.301Z,12.12
2023-01-06T07:41:14.690Z,12.10
2023-01-06T07:43:41.006Z,12.12
2023-01-06T07:46:07.414Z,12.12
2023-01-06T07:48:33.821Z,12.12
2023-01-06T07:51:00.165Z,12.13
2023-01-06T07:53:26.680Z,12.15
2023-01-06T07:55:53.240Z,12.15
2023-01-06T07:58:19.744Z,12.17
2023-01-06T08:00:46.366Z,12.18
2023-01-06T08:03:12.836Z,12.18
2023-01-06T08:05:41.794Z,12.20
2023-01-06T08:08:08.892Z,12.18
2023-01-06T08:10:35.330Z,12.17
2023-01-06T08:13:01.664Z,12.16
2023-01-06T08:15:27.994Z,12.15
2023-01-06T08:17:54.956Z,12.18
2023-01-06T08:20:21.682Z,11.98
2023-01-06T08:22:48.023Z,12.19
2023-01-06T08:25:14.459Z,12.18
2023-01-06T08:27:40.782Z,12.17
2023-01-06T08:30:07.498Z,12.18
2023-01-06T08:32:33.834Z,12.21
2023-01-06T08:35:00.223Z,12.21
2023-01-06T08:37:26.775Z,12.19
2023-01-06T08:39:53.160Z,12.21
2023-01-06T08:42:19.845Z,12.22
2023-01-06T08:44:46.173Z,12.25
2023-01-06T08:47:12.526Z,12.26
2023-01-06T08:49:38.823Z,12.26
2023-01-06T08:52:05.648Z,12.27
2023-01-06T08:54:32.094Z,12.30
2023-01-06T08:56:58.433Z,12.30
2023-01-06T08:59:24.811Z,12.34
2023-01-06T09:01:51.894Z,12.36
2023-01-06T09:04:18.421Z,12.37
2023-01-06T09:06:44.810Z,12.38
2023-01-06T09:09:12.235Z,12.43
2023-01-06T09:11:42.742Z,12.47
2023-01-06T09:14:10.009Z,12.47
2023-01-06T09:16:36.406Z,12.50
2023-01-06T09:19:02.784Z,12.52
2023-01-06T09:21:29.088Z,12.53
2023-01-06T09:23:55.462Z,12.56
2023-01-06T09:26:21.990Z,12.55
2023-01-06T09:28:48.443Z,12.58
2023-01-06T09:31:14.911Z,12.56
2023-01-06T09:33:41.493Z,12.55
2023-01-06T09:36:07.898Z,12.59
2023-01-06T09:38:34.312Z,12.62
2023-01-06T09:41:00.635Z,12.64
2023-01-06T09:43:30.038Z,12.68
2023-01-06T09:46:01.037Z,12.74
2023-01-06T09:48:29.913Z,12.79
2023-01-06T09:50:58.474Z,12.83
2023-01-06T09:53:40.299Z,12.85
2023-01-06T09:56:08.515Z,12.87
2023-01-06T09:58:45.840Z,12.85
2023-01-06T10:01:15.865Z,12.87
2023-01-06T10:03:45.503Z,12.88
2023-01-06T10:06:28.929Z,12.88
2023-01-06T10:08:58.320Z,12.90
2023-01-06T10:11:44.615Z,12.94
2023-01-06T10:14:17.937Z,12.95
2023-01-06T10:17:01.968Z,12.95
2023-01-06T10:19:45.444Z,12.95
2023-01-06T10:22:17.821Z,12.97
2023-01-06T10:24:57.220Z,12.98
2023-01-06T10:27:26.770Z,12.99
2023-01-06T10:29:55.018Z,12.96
2023-01-06T10:32:22.062Z,12.95
2023-01-06T10:34:50.110Z,12.98
2023-01-06T10:37:16.433Z,13.01
2023-01-06T10:39:44.250Z,12.95
2023-01-06T10:42:36.897Z,12.88
2023-01-06T10:45:03.456Z,12.82
2023-01-06T10:47:31.571Z,12.72
2023-01-06T10:49:59.114Z,12.72
2023-01-06T10:52:26.599Z,12.72
2023-01-06T10:54:55.042Z,12.74
2023-01-06T10:57:23.431Z,12.77
2023-01-06T11:00:09.430Z,12.80
2023-01-06T11:02:35.974Z,12.89
2023-01-06T11:05:02.612Z,12.92
2023-01-06T11:07:29.697Z,12.93
2023-01-06T11:09:57.148Z,13.00
2023-01-06T11:12:26.993Z,12.99
2023-01-06T11:15:03.595Z,13.12
2023-01-06T11:17:30.156Z,13.20
2023-01-06T11:20:15.679Z,13.23
2023-01-06T11:22:42.530Z,13.26
2023-01-06T11:25:32.191Z,13.30
2023-01-06T11:28:12.887Z,13.32
2023-01-06T11:30:42.441Z,13.34
2023-01-06T11:33:15.616Z,13.31
2023-01-06T11:35:42.038Z,13.28
2023-01-06T11:38:12.494Z,13.24
2023-01-06T11:40:39.023Z,13.19
2023-01-06T11:43:12.513Z,13.18
2023-01-06T11:45:41.908Z,13.06
2023-01-06T11:48:17.623Z,13.02
2023-01-06T11:50:50.689Z,12.96
2023-01-06T11:53:18.660Z,12.90
2023-01-06T11:55:57.474Z,12.87
2023-01-06T11:58:36.001Z,12.81
2023-01-06T12:01:09.448Z,12.78
2023-01-06T12:03:43.837Z,12.82
2023-01-06T12:06:13.277Z,12.88
2023-01-06T12:08:48.183Z,12.95
2023-01-06T12:11:29.903Z,12.92
2023-01-06T12:14:13.099Z,12.95
2023-01-06T12:16:55.721Z,12.96
2023-01-06T12:19:32.641Z,12.94
2023-01-06T12:21:59.559Z,12.90
2023-01-06T12:24:26.821Z,12.83
2023-01-06T12:26:53.682Z,12.81
2023-01-06T12:29:20.969Z,12.84
2023-01-06T12:31:50.259Z,12.81
2023-01-06T12:34:29.527Z,12.78
2023-01-06T12:37:14.735Z,12.81
2023-01-06T12:39:53.060Z,12.79
2023-01-06T12:42:23.737Z,12.87
2023-01-06T12:44:52.075Z,12.96
2023-01-06T12:47:31.278Z,13.07
2023-01-06T12:50:20.969Z,13.15
2023-01-06T12:52:50.552Z,13.16
2023-01-06T12:55:18.893Z,13.20
2023-01-06T12:57:51.457Z,13.13
2023-01-06T13:00:17.841Z,13.11
2023-01-06T13:02:58.471Z,13.11
2023-01-06T13:05:39.983Z,13.10
2023-01-06T13:08:12.401Z,13.10
2023-01-06T13:11:08.189Z,13.09
2023-01-06T13:13:53.417Z,13.19
2023-01-06T13:16:29.740Z,13.16
2023-01-06T13:19:07.228Z,12.94
2023-01-06T13:21:35.267Z,13.19
2023-01-06T13:24:09.211Z,13.24
2023-01-06T13:26:47.802Z,13.26
2023-01-06T13:29:33.821Z,13.25
2023-01-06T13:32:00.210Z,13.27
2023-01-06T13:34:47.857Z,13.26
2023-01-06T13:37:20.278Z,13.25
2023-01-06T13:39:54.238Z,13.20
2023-01-06T13:42:27.935Z,13.19
2023-01-06T13:44:54.438Z,13.18
2023-01-06T13:47:22.705Z,13.18
2023-01-06T13:49:49.690Z,13.20
2023-01-06T13:52:18.620Z,13.05
2023-01-06T13:54:44.932Z,13.25
2023-01-06T13:57:20.392Z,13.22
2023-01-06T13:59:49.851Z,13.17
2023-01-06T14:02:36.401Z,13.15
2023-01-06T14:05:03.794Z,13.16
2023-01-06T14:07:31.746Z,13.16
2023-01-06T14:09:58.423Z,13.21
2023-01-06T14:12:24.782Z,13.18
2023-01-06T14:14:55.688Z,13.21
2023-01-06T14:17:29.726Z,13.16
2023-01-06T14:19:56.345Z,13.15
2023-01-06T14:22:24.767Z,13.14
2023-01-06T14:24:52.863Z,13.11
2023-01-06T14:27:38.157Z,13.14
2023-01-06T14:30:19.715Z,13.20
2023-01-06T14:32:46.192Z,13.17
2023-01-06T14:35:13.935Z,13.23
2023-01-06T14:37:43.506Z,13.25
2023-01-06T14:40:21.207Z,13.17
2023-01-06T14:42:47.869Z,13.14
2023-01-06T14:45:37.359Z,13.13
2023-01-06T14:48:09.970Z,13.14
2023-01-06T14:50:46.944Z,13.12
2023-01-06T14:53:20.536Z,13.07
2023-01-06T14:55:48.687Z,13.08
2023-01-06T14:58:41.311Z,13.13
2023-01-06T15:01:20.647Z,13.13
2023-01-06T15:03:54.019Z,13.14
2023-01-06T15:06:24.359Z,13.18
2023-01-06T15:08:51.103Z,13.16
2023-01-06T15:11:20.410Z,13.12
2023-01-06T15:13:46.857Z,13.12
2023-01-06T15:16:23.147Z,13.10
2023-01-06T15:18:52.181Z,13.10
2023-01-06T15:21:40.080Z,13.06
2023-01-06T15:24:25.919Z,13.01
2023-01-06T15:26:53.299Z,13.00
2023-01-06T15:29:21.053Z,12.95
2023-01-06T15:31:48.661Z,12.91
2023-01-06T15:34:18.201Z,12.91
2023-01-06T15:37:06.438Z,12.70
2023-01-06T15:39:52.019Z,12.86
2023-01-06T15:42:40.035Z,12.86
2023-01-06T15:45:32.243Z,12.84
2023-01-06T15:48:20.775Z,12.85
2023-01-06T15:51:12.825Z,12.85
2023-01-06T15:53:58.985Z,12.68
2023-01-06T15:56:43.834Z,12.91
2023-01-06T15:59:28.794Z,12.93
2023-01-06T16:02:18.316Z,12.91
2023-01-06T16:05:03.369Z,12.91
2023-01-06T16:07:48.198Z,12.88
2023-01-06T16:10:34.757Z,12.88
2023-01-06T16:13:29.292Z,12.91
2023-01-06T16:16:14.169Z,12.96
2023-01-06T16:19:07.173Z,12.91
2023-01-06T16:21:53.663Z,12.90
2023-01-06T16:24:38.902Z,12.86
2023-01-06T16:27:24.963Z,12.85
2023-01-06T16:30:13.085Z,12.82
2023-01-06T16:33:00.191Z,12.80
2023-01-06T16:35:45.103Z,12.81
2023-01-06T16:38:29.903Z,12.76
2023-01-06T16:41:18.484Z,12.70
2023-01-06T16:44:04.203Z,12.66
2023-01-06T16:46:49.027Z,12.66
2023-01-06T16:49:33.970Z,12.64
2023-01-06T16:52:18.766Z,12.62
2023-01-06T16:55:11.046Z,12.60
2023-01-06T16:57:57.295Z,12.58
2023-01-06T17:00:44.128Z,12.52
2023-01-06T17:03:30.358Z,12.53
2023-01-06T17:06:17.427Z,12.54
2023-01-06T17:09:02.477Z,12.57
2023-01-06T17:11:48.043Z,12.56
2023-01-06T17:14:34.982Z,12.63
2023-01-06T17:17:02.919Z,12.61
2023-01-06T17:19:47.797Z,12.63
2023-01-06T17:22:32.608Z,12.67
2023-01-06T17:25:14.205Z,12.67
2023-01-06T17:27:58.909Z,12.66
2023-01-06T17:30:43.576Z,12.66
2023-01-06T17:33:30.532Z,12.63
2023-01-06T17:36:19.854Z,12.62
2023-01-06T17:39:14.151Z,12.63
2023-01-06T17:42:12.737Z,12.61
2023-01-06T17:44:59.949Z,12.56
2023-01-06T17:47:49.319Z,12.56
2023-01-06T17:50:35.926Z,12.58
2023-01-06T17:53:47.721Z,12.58
2023-01-06T17:56:34.384Z,12.59
2023-01-06T17:59:21.025Z,12.58
2023-01-06T18:02:26.201Z,12.57
2023-01-06T18:05:21.713Z,12.60
2023-01-06T18:08:08.332Z,12.57
2023-01-06T18:10:57.287Z,12.54
2023-01-06T18:13:43.931Z,12.53
2023-01-06T18:16:31.736Z,12.49
2023-01-06T18:19:26.432Z,12.44
2023-01-06T18:22:15.854Z,12.44
2023-01-06T18:25:02.602Z,12.43
2023-01-06T18:27:49.978Z,12.44
2023-01-06T18:30:36.654Z,12.43
2023-01-06T18:33:24.402Z,12.43
2023-01-06T18:36:11.051Z,12.49
2023-01-06T18:39:00.327Z,12.48
2023-01-06T18:41:47.144Z,12.49
2023-01-06T18:44:34.477Z,12.47
2023-01-06T18:47:24.618Z,12.48
2023-01-06T18:50:23.490Z,12.49
2023-01-06T18:53:12.887Z,12.45
2023-01-06T18:56:01.791Z,12.44
2023-01-06T18:58:54.846Z,12.44
2023-01-06T19:01:44.331Z,12.43
2023-01-06T19:04:32.808Z,12.42
2023-01-06T19:07:24.911Z,12.41
2023-01-06T19:10:24.051Z,12.48
2023-01-06T19:13:22.228Z,12.48
2023-01-06T19:16:27.469Z,12.42
2023-01-06T19:19:23.986Z,12.42
2023-01-06T19:22:22.610Z,12.41
2023-01-06T19:25:18.106Z,12.42
2023-01-06T19:28:10.856Z,12.44
2023-01-06T19:31:04.381Z,12.48
2023-01-06T19:33:53.968Z,12.51
2023-01-06T19:36:42.081Z,12.53
2023-01-06T19:39:31.510Z,12.53
2023-01-06T19:42:19.767Z,12.52
2023-01-06T19:45:15.873Z,12.54
2023-01-06T19:48:08.618Z,12.55
2023-01-06T19:51:14.148Z,12.58
2023-01-06T19:54:11.940Z,12.54
2023-01-06T19:56:58.753Z,12.56
2023-01-06T19:59:45.345Z,12.55
2023-01-06T20:02:40.410Z,12.57
2023-01-06T20:05:28.116Z,12.58
2023-01-06T20:08:14.762Z,12.56
2023-01-06T20:11:01.518Z,12.59
2023-01-06T20:13:48.237Z,12.57
2023-01-06T20:16:34.967Z,12.56
2023-01-06T20:19:21.760Z,12.54
2023-01-06T20:22:08.448Z,12.55
2023-01-06T20:24:57.394Z,12.53
2023-01-06T20:27:44.031Z,12.50
2023-01-06T20:30:30.760Z,12.50
2023-01-06T20:33:17.355Z,12.52
2023-01-06T20:36:04.025Z,12.51
2023-01-06T20:38:50.924Z,12.49
2023-01-06T20:41:37.545Z,12.50
2023-01-06T20:44:24.142Z,12.53
2023-01-06T20:47:10.757Z,12.49
2023-01-06T20:49:57.450Z,12.48
2023-01-06T20:52:47.120Z,12.45
2023-01-06T20:55:33.863Z,12.45
2023-01-06T20:58:20.477Z,12.45
2023-01-06T21:01:07.172Z,12.44
2023-01-06T21:03:53.914Z,12.42
2023-01-06T21:06:40.596Z,12.43
2023-01-06T21:09:29.074Z,12.40
2023-01-06T21:12:15.707Z,12.36
2023-01-06T21:15:02.392Z,12.32
2023-01-06T21:17:49.053Z,12.33
2023-01-06T21:20:35.625Z,12.37
2023-01-06T21:23:22.256Z,12.41
2023-01-06T21:26:08.869Z,12.41
2023-01-06T21:28:55.563Z,12.44
2023-01-06T21:31:43.719Z,12.48
2023-01-06T21:34:30.656Z,12.45
2023-01-06T21:37:17.776Z,12.45
2023-01-06T21:40:08.066Z,12.47
2023-01-06T21:43:09.741Z,12.48
2023-01-06T21:45:56.408Z,12.50
2023-01-06T21:48:43.169Z,12.51
2023-01-06T21:51:29.797Z,12.52
2023-01-06T21:54:16.523Z,12.53
2023-01-06T21:57:03.202Z,12.54
2023-01-06T21:59:49.860Z,12.51
2023-01-06T22:02:36.768Z,12.52
2023-01-06T22:05:23.656Z,12.54
2023-01-06T22:08:10.340Z,12.51
2023-01-06T22:10:57.066Z,12.52
2023-01-06T22:13:43.813Z,12.47
2023-01-06T22:16:30.450Z,12.49
2023-01-06T22:19:17.171Z,12.55
2023-01-06T22:22:03.976Z,12.56
2023-01-06T22:24:51.864Z,12.53
2023-01-06T22:27:38.586Z,12.50
2023-01-06T22:30:25.490Z,12.53
2023-01-06T22:33:12.182Z,12.54
2023-01-06T22:35:58.901Z,12.56
2023-01-06T22:38:45.500Z,12.54
2023-01-06T22:41:32.130Z,12.54
2023-01-06T22:44:18.810Z,12.50
2023-01-06T22:47:05.436Z,12.55
2023-01-06T22:49:52.015Z,12.53
2023-01-06T22:52:38.741Z,12.53
2023-01-06T22:55:25.317Z,12.47
2023-01-06T22:58:11.979Z,12.47
2023-01-06T23:00:58.579Z,12.45
2023-01-06T23:03:45.470Z,12.41
2023-01-06T23:06:32.210Z,12.44
2023-01-06T23:09:00.843Z,12.42
2023-01-06T23:11:28.517Z,12.50
2023-01-06T23:13:56.455Z,12.48
2023-01-06T23:16:23.202Z,12.49
2023-01-06T23:18:49.974Z,12.51
2023-01-06T23:21:21.904Z,12.50
2023-01-06T23:23:49.160Z,12.50
2023-01-06T23:26:20.703Z,12.52
2023-01-06T23:28:47.086Z,12.55
2023-01-06T23:31:14.936Z,12.57
2023-01-06T23:33:42.722Z,12.60
2023-01-06T23:36:10.300Z,12.59
2023-01-06T23:38:37.220Z,12.60
2023-01-06T23:41:04.581Z,12.62
2023-01-06T23:43:31.957Z,12.57
2023-01-06T23:46:06.133Z,12.60
2023-01-06T23:48:33.369Z,12.61
2023-01-06T23:51:00.135Z,12.61
2023-01-06T23:53:27.034Z,12.63
2023-01-06T23:56:00.781Z,12.61
2023-01-06T23:58:28.179Z,12.63
